sensor_id;sensor_type;location;lat;lon;timestamp;pressure;altitude;pressure_sealevel;temperature;humidity
55576;BME280;41437;45.478;9.116;2023-04-03T00:01:53;99485.94;;;10.44;nan
55576;BME280;41437;45.478;9.116;2023-04-03T00:04:54;99485.09;;;10.44;nan
55576;BME280;41437;45.478;9.116;2023-04-03T00:07:57;99483.16;;;10.39;nan
55576;BME280;41437;45.478;9.116;2023-04-03T00:10:59;99475.16;;;10.32;nan
55576;BME280;41437;45.478;9.116;2023-04-03T00:14:00;99475.16;;;10.32;nan
55576;BME280;41437;45.478;9.116;2023-04-03T00:17:02;99474.88;;;10.34;nan
55576;BME280;41437;45.478;9.116;2023-04-03T00:20:04;99475.84;;;10.18;nan
55576;BME280;41437;45.478;9.116;2023-04-03T00:23:07;99470.00;;;10.04;nan
55576;BME280;41437;45.478;9.116;2023-04-03T00:26:09;99474.53;;;9.83;nan
55576;BME280;41437;45.478;9.116;2023-04-03T00:29:11;99471.56;;;9.90;nan
55576;BME280;41437;45.478;9.116;2023-04-03T00:32:13;99468.63;;;10.01;nan
55576;BME280;41437;45.478;9.116;2023-04-03T00:35:14;99468.06;;;9.99;nan
55576;BME280;41437;45.478;9.116;2023-04-03T00:38:18;99467.69;;;9.86;nan
55576;BME280;41437;45.478;9.116;2023-04-03T00:41:19;99453.75;;;9.60;nan
55576;BME280;41437;45.478;9.116;2023-04-03T00:44:23;99448.50;;;9.53;nan
55576;BME280;41437;45.478;9.116;2023-04-03T00:47:44;99451.19;;;9.48;nan
55576;BME280;41437;45.478;9.116;2023-04-03T00:50:46;99457.34;;;9.61;nan
55576;BME280;41437;45.478;9.116;2023-04-03T00:53:52;99447.44;;;9.60;nan
55576;BME280;41437;45.478;9.116;2023-04-03T00:56:57;99447.66;;;9.53;nan
55576;BME280;41437;45.478;9.116;2023-04-03T01:00:03;99446.31;;;9.55;nan
55576;BME280;41437;45.478;9.116;2023-04-03T01:03:06;99451.88;;;9.66;nan
55576;BME280;41437;45.478;9.116;2023-04-03T01:06:08;99451.63;;;9.67;nan
55576;BME280;41437;45.478;9.116;2023-04-03T01:09:11;99453.53;;;9.67;nan
55576;BME280;41437;45.478;9.116;2023-04-03T01:12:13;99457.91;;;9.63;nan
55576;BME280;41437;45.478;9.116;2023-04-03T01:15:18;99450.50;;;9.63;nan
55576;BME280;41437;45.478;9.116;2023-04-03T01:18:21;99450.22;;;9.65;nan
55576;BME280;41437;45.478;9.116;2023-04-03T01:22:00;99451.94;;;9.71;nan
55576;BME280;41437;45.478;9.116;2023-04-03T01:25:06;99443.13;;;9.74;nan
55576;BME280;41437;45.478;9.116;2023-04-03T01:28:10;99443.22;;;9.84;nan
55576;BME280;41437;45.478;9.116;2023-04-03T01:31:17;99444.50;;;9.71;nan
55576;BME280;41437;45.478;9.116;2023-04-03T01:34:22;99437.78;;;9.57;nan
55576;BME280;41437;45.478;9.116;2023-04-03T01:37:24;99434.69;;;9.48;nan
55576;BME280;41437;45.478;9.116;2023-04-03T01:40:25;99443.69;;;9.39;nan
55576;BME280;41437;45.478;9.116;2023-04-03T01:43:27;99432.00;;;8.89;nan
55576;BME280;41437;45.478;9.116;2023-04-03T01:46:29;99427.25;;;8.57;nan
55576;BME280;41437;45.478;9.116;2023-04-03T01:49:32;99428.78;;;8.26;nan
55576;BME280;41437;45.478;9.116;2023-04-03T01:52:33;99428.56;;;8.28;nan
55576;BME280;41437;45.478;9.116;2023-04-03T01:55:35;99418.34;;;8.23;nan
55576;BME280;41437;45.478;9.116;2023-04-03T01:58:37;99418.53;;;8.39;nan
55576;BME280;41437;45.478;9.116;2023-04-03T02:01:39;99417.91;;;8.53;nan
55576;BME280;41437;45.478;9.116;2023-04-03T02:04:42;99421.06;;;8.67;nan
55576;BME280;41437;45.478;9.116;2023-04-03T02:07:43;99416.75;;;8.76;nan
55576;BME280;41437;45.478;9.116;2023-04-03T02:10:47;99410.44;;;8.76;nan
55576;BME280;41437;45.478;9.116;2023-04-03T02:13:49;99421.75;;;8.79;nan
55576;BME280;41437;45.478;9.116;2023-04-03T02:16:50;99419.59;;;8.87;nan
55576;BME280;41437;45.478;9.116;2023-04-03T02:19:53;99419.56;;;8.81;nan
55576;BME280;41437;45.478;9.116;2023-04-03T02:22:55;99428.97;;;8.64;nan
55576;BME280;41437;45.478;9.116;2023-04-03T02:26:06;99419.91;;;8.63;nan
55576;BME280;41437;45.478;9.116;2023-04-03T02:29:07;99414.78;;;8.72;nan
55576;BME280;41437;45.478;9.116;2023-04-03T02:32:09;99412.09;;;8.77;nan
55576;BME280;41437;45.478;9.116;2023-04-03T02:35:12;99414.31;;;8.80;nan
55576;BME280;41437;45.478;9.116;2023-04-03T02:38:13;99417.34;;;8.84;nan
55576;BME280;41437;45.478;9.116;2023-04-03T02:41:15;99409.66;;;8.80;nan
55576;BME280;41437;45.478;9.116;2023-04-03T02:44:16;99408.25;;;8.78;nan
55576;BME280;41437;45.478;9.116;2023-04-03T02:47:19;99413.59;;;8.63;nan
55576;BME280;41437;45.478;9.116;2023-04-03T02:50:22;99414.09;;;8.60;nan
55576;BME280;41437;45.478;9.116;2023-04-03T02:53:23;99409.19;;;8.62;nan
55576;BME280;41437;45.478;9.116;2023-04-03T02:56:25;99405.22;;;8.52;nan
55576;BME280;41437;45.478;9.116;2023-04-03T02:59:27;99402.25;;;8.54;nan
55576;BME280;41437;45.478;9.116;2023-04-03T03:02:28;99395.44;;;8.62;nan
55576;BME280;41437;45.478;9.116;2023-04-03T03:05:31;99407.56;;;8.66;nan
55576;BME280;41437;45.478;9.116;2023-04-03T03:08:33;99405.56;;;8.56;nan
55576;BME280;41437;45.478;9.116;2023-04-03T03:11:35;99401.72;;;7.91;nan
55576;BME280;41437;45.478;9.116;2023-04-03T03:14:36;99406.00;;;8.04;nan
55576;BME280;41437;45.478;9.116;2023-04-03T03:17:38;99408.44;;;8.00;nan
55576;BME280;41437;45.478;9.116;2023-04-03T03:20:41;99412.47;;;8.15;nan
55576;BME280;41437;45.478;9.116;2023-04-03T03:23:42;99403.03;;;8.05;nan
55576;BME280;41437;45.478;9.116;2023-04-03T03:26:44;99403.72;;;8.18;nan
55576;BME280;41437;45.478;9.116;2023-04-03T03:29:46;99393.44;;;8.08;nan
55576;BME280;41437;45.478;9.116;2023-04-03T03:32:47;99389.03;;;7.85;nan
55576;BME280;41437;45.478;9.116;2023-04-03T03:35:51;99392.34;;;7.87;nan
55576;BME280;41437;45.478;9.116;2023-04-03T03:38:53;99394.31;;;7.92;nan
55576;BME280;41437;45.478;9.116;2023-04-03T03:41:54;99395.63;;;8.06;nan
55576;BME280;41437;45.478;9.116;2023-04-03T03:44:56;99393.81;;;8.17;nan
55576;BME280;41437;45.478;9.116;2023-04-03T03:47:57;99396.16;;;8.30;nan
55576;BME280;41437;45.478;9.116;2023-04-03T03:51:00;99402.47;;;8.30;nan
55576;BME280;41437;45.478;9.116;2023-04-03T03:54:02;99407.31;;;8.40;nan
55576;BME280;41437;45.478;9.116;2023-04-03T03:57:03;99402.91;;;8.39;nan
55576;BME280;41437;45.478;9.116;2023-04-03T04:00:06;99401.84;;;8.40;nan
55576;BME280;41437;45.478;9.116;2023-04-03T04:03:08;99405.97;;;8.43;nan
55576;BME280;41437;45.478;9.116;2023-04-03T04:06:11;99396.91;;;8.42;nan
55576;BME280;41437;45.478;9.116;2023-04-03T04:09:13;99399.09;;;8.40;nan
55576;BME280;41437;45.478;9.116;2023-04-03T04:12:14;99403.97;;;8.38;nan
55576;BME280;41437;45.478;9.116;2023-04-03T04:15:16;99402.81;;;8.34;nan
55576;BME280;41437;45.478;9.116;2023-04-03T04:18:18;99397.00;;;8.30;nan
55576;BME280;41437;45.478;9.116;2023-04-03T04:21:21;99407.59;;;8.22;nan
55576;BME280;41437;45.478;9.116;2023-04-03T04:24:23;99400.00;;;7.85;nan
55576;BME280;41437;45.478;9.116;2023-04-03T04:27:24;99399.50;;;7.88;nan
55576;BME280;41437;45.478;9.116;2023-04-03T04:30:26;99402.00;;;7.90;nan
55576;BME280;41437;45.478;9.116;2023-04-03T04:33:28;99401.72;;;7.91;nan
55576;BME280;41437;45.478;9.116;2023-04-03T04:36:31;99398.81;;;7.98;nan
55576;BME280;41437;45.478;9.116;2023-04-03T04:39:33;99401.56;;;7.98;nan
55576;BME280;41437;45.478;9.116;2023-04-03T04:42:34;99399.25;;;7.90;nan
55576;BME280;41437;45.478;9.116;2023-04-03T04:45:36;99404.22;;;7.93;nan
55576;BME280;41437;45.478;9.116;2023-04-03T04:48:37;99391.09;;;7.95;nan
55576;BME280;41437;45.478;9.116;2023-04-03T04:51:41;99402.38;;;7.98;nan
55576;BME280;41437;45.478;9.116;2023-04-03T04:54:44;99401.25;;;7.39;nan
55576;BME280;41437;45.478;9.116;2023-04-03T04:57:46;99400.75;;;7.42;nan
55576;BME280;41437;45.478;9.116;2023-04-03T05:00:47;99398.09;;;7.30;nan
55576;BME280;41437;45.478;9.116;2023-04-03T05:03:49;99394.53;;;7.46;nan
55576;BME280;41437;45.478;9.116;2023-04-03T05:06:52;99405.44;;;7.24;nan
55576;BME280;41437;45.478;9.116;2023-04-03T05:09:56;99401.69;;;7.14;nan
55576;BME280;41437;45.478;9.116;2023-04-03T05:12:57;99411.22;;;6.94;nan
55576;BME280;41437;45.478;9.116;2023-04-03T05:16:00;99410.53;;;6.87;nan
55576;BME280;41437;45.478;9.116;2023-04-03T05:19:02;99414.78;;;6.95;nan
55576;BME280;41437;45.478;9.116;2023-04-03T05:22:05;99411.22;;;6.94;nan
55576;BME280;41437;45.478;9.116;2023-04-03T05:25:08;99415.56;;;7.07;nan
55576;BME280;41437;45.478;9.116;2023-04-03T05:28:11;99402.94;;;7.23;nan
55576;BME280;41437;45.478;9.116;2023-04-03T05:31:13;99417.38;;;7.35;nan
55576;BME280;41437;45.478;9.116;2023-04-03T05:34:14;99415.84;;;7.44;nan
55576;BME280;41437;45.478;9.116;2023-04-03T05:37:17;99422.16;;;7.62;nan
55576;BME280;41437;45.478;9.116;2023-04-03T05:40:19;99420.47;;;7.77;nan
55576;BME280;41437;45.478;9.116;2023-04-03T05:43:20;99423.22;;;7.99;nan
55576;BME280;41437;45.478;9.116;2023-04-03T05:46:22;99429.09;;;8.30;nan
55576;BME280;41437;45.478;9.116;2023-04-03T05:49:23;99430.91;;;8.63;nan
55576;BME280;41437;45.478;9.116;2023-04-03T05:52:28;99433.03;;;9.10;nan
55576;BME280;41437;45.478;9.116;2023-04-03T05:55:30;99424.28;;;9.55;nan
55576;BME280;41437;45.478;9.116;2023-04-03T05:58:33;99428.41;;;10.00;nan
55576;BME280;41437;45.478;9.116;2023-04-03T06:01:34;99430.22;;;10.27;nan
55576;BME280;41437;45.478;9.116;2023-04-03T06:04:36;99435.59;;;10.54;nan
55576;BME280;41437;45.478;9.116;2023-04-03T06:07:39;99435.31;;;10.71;nan
55576;BME280;41437;45.478;9.116;2023-04-03T06:10:40;99443.66;;;10.91;nan
55576;BME280;41437;45.478;9.116;2023-04-03T06:13:42;99445.06;;;11.35;nan
55576;BME280;41437;45.478;9.116;2023-04-03T06:16:44;99461.88;;;11.94;nan
55576;BME280;41437;45.478;9.116;2023-04-03T06:19:45;99463.38;;;12.51;nan
55576;BME280;41437;45.478;9.116;2023-04-03T06:22:48;99472.09;;;13.18;nan
55576;BME280;41437;45.478;9.116;2023-04-03T06:25:50;99471.75;;;13.69;nan
55576;BME280;41437;45.478;9.116;2023-04-03T06:28:52;99469.94;;;14.13;nan
55576;BME280;41437;45.478;9.116;2023-04-03T06:31:53;99474.47;;;14.56;nan
55576;BME280;41437;45.478;9.116;2023-04-03T06:34:55;99470.09;;;14.50;nan
55576;BME280;41437;45.478;9.116;2023-04-03T06:37:58;99470.47;;;14.63;nan
55576;BME280;41437;45.478;9.116;2023-04-03T06:41:00;99476.66;;;14.60;nan
55576;BME280;41437;45.478;9.116;2023-04-03T06:44:01;99474.47;;;14.56;nan
55576;BME280;41437;45.478;9.116;2023-04-03T06:47:05;99481.19;;;14.45;nan
55576;BME280;41437;45.478;9.116;2023-04-03T06:50:07;99486.69;;;14.55;nan
55576;BME280;41437;45.478;9.116;2023-04-03T06:53:10;99488.69;;;14.50;nan
55576;BME280;41437;45.478;9.116;2023-04-03T06:56:12;99480.50;;;14.34;nan
55576;BME280;41437;45.478;9.116;2023-04-03T06:59:14;99482.59;;;14.24;nan
55576;BME280;41437;45.478;9.116;2023-04-03T07:02:15;99484.56;;;14.18;nan
55576;BME280;41437;45.478;9.116;2023-04-03T07:05:17;99485.56;;;14.27;nan
55576;BME280;41437;45.478;9.116;2023-04-03T07:08:20;99486.41;;;14.28;nan
55576;BME280;41437;45.478;9.116;2023-04-03T07:11:23;99489.44;;;14.02;nan
55576;BME280;41437;45.478;9.116;2023-04-03T07:14:25;99480.06;;;13.98;nan
55576;BME280;41437;45.478;9.116;2023-04-03T07:17:28;99492.56;;;13.96;nan
55576;BME280;41437;45.478;9.116;2023-04-03T07:20:29;99490.78;;;14.05;nan
55576;BME280;41437;45.478;9.116;2023-04-03T07:23:33;99497.72;;;14.07;nan
55576;BME280;41437;45.478;9.116;2023-04-03T07:26:34;99495.50;;;14.04;nan
55576;BME280;41437;45.478;9.116;2023-04-03T07:29:36;99500.38;;;14.18;nan
55576;BME280;41437;45.478;9.116;2023-04-03T07:32:37;99492.19;;;14.31;nan
55576;BME280;41437;45.478;9.116;2023-04-03T07:35:39;99503.06;;;14.52;nan
55576;BME280;41437;45.478;9.116;2023-04-03T07:38:42;99499.72;;;14.55;nan
55576;BME280;41437;45.478;9.116;2023-04-03T07:41:44;99504.22;;;15.13;nan
55576;BME280;41437;45.478;9.116;2023-04-03T07:44:46;99510.41;;;15.80;nan
55576;BME280;41437;45.478;9.116;2023-04-03T07:47:47;99514.56;;;15.64;nan
55576;BME280;41437;45.478;9.116;2023-04-03T07:50:49;99514.03;;;15.62;nan
55576;BME280;41437;45.478;9.116;2023-04-03T07:53:53;99527.00;;;16.18;nan
55576;BME280;41437;45.478;9.116;2023-04-03T07:56:55;99518.28;;;16.38;nan
55576;BME280;41437;45.478;9.116;2023-04-03T07:59:58;99525.81;;;16.38;nan
55576;BME280;41437;45.478;9.116;2023-04-03T08:02:59;99524.00;;;16.14;nan
55576;BME280;41437;45.478;9.116;2023-04-03T08:06:03;99518.91;;;16.63;nan
55576;BME280;41437;45.478;9.116;2023-04-03T08:09:07;99519.13;;;16.80;nan
55576;BME280;41437;45.478;9.116;2023-04-03T08:12:09;99523.75;;;16.71;nan
55576;BME280;41437;45.478;9.116;2023-04-03T08:15:11;99523.16;;;16.88;nan
55576;BME280;41437;45.478;9.116;2023-04-03T08:18:13;99520.16;;;16.84;nan
55576;BME280;41437;45.478;9.116;2023-04-03T08:21:16;99520.38;;;16.88;nan
55576;BME280;41437;45.478;9.116;2023-04-03T08:24:22;99521.09;;;16.93;nan
55576;BME280;41437;45.478;9.116;2023-04-03T08:27:24;99521.19;;;16.33;nan
55576;BME280;41437;45.478;9.116;2023-04-03T08:30:26;99518.47;;;16.28;nan
55576;BME280;41437;45.478;9.116;2023-04-03T08:33:28;99521.47;;;16.45;nan
55576;BME280;41437;45.478;9.116;2023-04-03T08:36:31;99516.34;;;16.52;nan
55576;BME280;41437;45.478;9.116;2023-04-03T08:39:34;99510.38;;;16.59;nan
55576;BME280;41437;45.478;9.116;2023-04-03T08:42:39;99520.03;;;17.17;nan
55576;BME280;41437;45.478;9.116;2023-04-03T08:45:46;99518.63;;;16.92;nan
55576;BME280;41437;45.478;9.116;2023-04-03T08:48:51;99505.94;;;16.72;nan
55576;BME280;41437;45.478;9.116;2023-04-03T08:51:54;99502.81;;;17.15;nan
55576;BME280;41437;45.478;9.116;2023-04-03T08:55:00;99499.25;;;17.37;nan
55576;BME280;41437;45.478;9.116;2023-04-03T08:58:09;99496.38;;;17.64;nan
55576;BME280;41437;45.478;9.116;2023-04-03T09:01:17;99487.81;;;17.61;nan
55576;BME280;41437;45.478;9.116;2023-04-03T09:04:20;99500.19;;;17.32;nan
55576;BME280;41437;45.478;9.116;2023-04-03T09:07:29;99497.81;;;17.39;nan
55576;BME280;41437;45.478;9.116;2023-04-03T09:10:37;99497.25;;;17.51;nan
55576;BME280;41437;45.478;9.116;2023-04-03T09:13:49;99506.56;;;17.46;nan
55576;BME280;41437;45.478;9.116;2023-04-03T09:16:55;99491.50;;;16.70;nan
55576;BME280;41437;45.478;9.116;2023-04-03T09:20:04;99483.47;;;16.27;nan
55576;BME280;41437;45.478;9.116;2023-04-03T09:23:21;99480.00;;;15.89;nan
55576;BME280;41437;45.478;9.116;2023-04-03T09:26:29;99474.78;;;16.01;nan
55576;BME280;41437;45.478;9.116;2023-04-03T09:29:34;99473.09;;;16.74;nan
55576;BME280;41437;45.478;9.116;2023-04-03T09:32:36;99476.13;;;17.36;nan
55576;BME280;41437;45.478;9.116;2023-04-03T09:35:41;99478.25;;;17.98;nan
55576;BME280;41437;45.478;9.116;2023-04-03T09:38:43;99479.91;;;18.30;nan
55576;BME280;41437;45.478;9.116;2023-04-03T09:41:59;99476.97;;;18.75;nan
55576;BME280;41437;45.478;9.116;2023-04-03T09:45:03;99477.47;;;18.37;nan
55576;BME280;41437;45.478;9.116;2023-04-03T09:48:07;99486.06;;;16.78;nan
55576;BME280;41437;45.478;9.116;2023-04-03T09:51:15;99470.09;;;16.29;nan
55576;BME280;41437;45.478;9.116;2023-04-03T09:54:32;99468.53;;;16.92;nan
55576;BME280;41437;45.478;9.116;2023-04-03T09:57:41;99457.94;;;16.80;nan
55576;BME280;41437;45.478;9.116;2023-04-03T10:00:43;99452.78;;;16.87;nan
55576;BME280;41437;45.478;9.116;2023-04-03T10:04:07;99452.03;;;16.95;nan
55576;BME280;41437;45.478;9.116;2023-04-03T10:07:27;99453.31;;;16.75;nan
55576;BME280;41437;45.478;9.116;2023-04-03T10:10:30;99455.19;;;17.16;nan
55576;BME280;41437;45.478;9.116;2023-04-03T10:13:34;99455.47;;;17.51;nan
55576;BME280;41437;45.478;9.116;2023-04-03T10:16:39;99444.50;;;17.99;nan
55576;BME280;41437;45.478;9.116;2023-04-03T10:19:46;99449.25;;;17.99;nan
55576;BME280;41437;45.478;9.116;2023-04-03T10:22:59;99446.03;;;18.14;nan
55576;BME280;41437;45.478;9.116;2023-04-03T10:26:11;99447.00;;;18.49;nan
55576;BME280;41437;45.478;9.116;2023-04-03T10:29:36;99437.63;;;18.85;nan
55576;BME280;41437;45.478;9.116;2023-04-03T10:32:49;99431.94;;;18.50;nan
55576;BME280;41437;45.478;9.116;2023-04-03T10:36:05;99425.84;;;18.57;nan
55576;BME280;41437;45.478;9.116;2023-04-03T10:39:28;99423.97;;;18.83;nan
55576;BME280;41437;45.478;9.116;2023-04-03T10:45:51;99420.22;;;18.97;nan
55576;BME280;41437;45.478;9.116;2023-04-03T10:49:22;99412.19;;;19.21;nan
55576;BME280;41437;45.478;9.116;2023-04-03T10:58:40;99406.59;;;19.30;nan
55576;BME280;41437;45.478;9.116;2023-04-03T11:01:48;99402.44;;;19.53;nan
55576;BME280;41437;45.478;9.116;2023-04-03T11:08:04;99390.94;;;19.81;nan
55576;BME280;41437;45.478;9.116;2023-04-03T11:11:13;99378.88;;;20.27;nan
55576;BME280;41437;45.478;9.116;2023-04-03T11:14:23;99375.03;;;20.02;nan
55576;BME280;41437;45.478;9.116;2023-04-03T11:17:31;99369.72;;;19.71;nan
55576;BME280;41437;45.478;9.116;2023-04-03T11:20:35;99364.75;;;19.86;nan
55576;BME280;41437;45.478;9.116;2023-04-03T11:23:40;99351.69;;;20.07;nan
55576;BME280;41437;45.478;9.116;2023-04-03T11:29:46;99345.09;;;19.47;nan
55576;BME280;41437;45.478;9.116;2023-04-03T11:33:00;99347.38;;;19.63;nan
55576;BME280;41437;45.478;9.116;2023-04-03T11:36:08;99340.88;;;19.15;nan
55576;BME280;41437;45.478;9.116;2023-04-03T11:39:20;99335.16;;;18.94;nan
55576;BME280;41437;45.478;9.116;2023-04-03T11:42:31;99331.78;;;19.44;nan
55576;BME280;41437;45.478;9.116;2023-04-03T11:45:38;99327.44;;;19.81;nan
55576;BME280;41437;45.478;9.116;2023-04-03T11:48:57;99331.91;;;20.12;nan
55576;BME280;41437;45.478;9.116;2023-04-03T11:51:59;99321.66;;;20.25;nan
55576;BME280;41437;45.478;9.116;2023-04-03T11:55:01;99327.97;;;19.57;nan
55576;BME280;41437;45.478;9.116;2023-04-03T11:58:11;99312.84;;;19.58;nan
55576;BME280;41437;45.478;9.116;2023-04-03T12:01:44;99307.97;;;19.47;nan
55576;BME280;41437;45.478;9.116;2023-04-03T12:05:27;99304.47;;;19.58;nan
55576;BME280;41437;45.478;9.116;2023-04-03T12:08:38;99298.88;;;18.86;nan
55576;BME280;41437;45.478;9.116;2023-04-03T12:11:44;99285.72;;;19.03;nan
55576;BME280;41437;45.478;9.116;2023-04-03T12:14:46;99295.88;;;19.81;nan
55576;BME280;41437;45.478;9.116;2023-04-03T12:20:56;99292.06;;;20.15;nan
55576;BME280;41437;45.478;9.116;2023-04-03T12:27:09;99286.31;;;20.41;nan
55576;BME280;41437;45.478;9.116;2023-04-03T12:33:27;99280.84;;;20.45;nan
55576;BME280;41437;45.478;9.116;2023-04-03T12:36:42;99273.91;;;20.00;nan
55576;BME280;41437;45.478;9.116;2023-04-03T12:39:56;99271.47;;;20.49;nan
55576;BME280;41437;45.478;9.116;2023-04-03T12:43:21;99271.47;;;20.20;nan
55576;BME280;41437;45.478;9.116;2023-04-03T12:46:35;99267.22;;;20.43;nan
55576;BME280;41437;45.478;9.116;2023-04-03T12:49:39;99263.47;;;20.81;nan
55576;BME280;41437;45.478;9.116;2023-04-03T12:52:49;99261.75;;;20.89;nan
55576;BME280;41437;45.478;9.116;2023-04-03T13:08:12;99244.66;;;21.36;nan
55576;BME280;41437;45.478;9.116;2023-04-03T13:11:16;99238.03;;;21.77;nan
55576;BME280;41437;45.478;9.116;2023-04-03T13:14:22;99235.69;;;21.91;nan
55576;BME280;41437;45.478;9.116;2023-04-03T13:17:25;99225.41;;;22.07;nan
55576;BME280;41437;45.478;9.116;2023-04-03T13:20:29;99226.81;;;21.77;nan
55576;BME280;41437;45.478;9.116;2023-04-03T13:23:36;99221.22;;;21.77;nan
55576;BME280;41437;45.478;9.116;2023-04-03T13:29:41;99215.28;;;21.21;nan
55576;BME280;41437;45.478;9.116;2023-04-03T13:32:43;99214.31;;;21.04;nan
55576;BME280;41437;45.478;9.116;2023-04-03T13:35:45;99203.66;;;20.86;nan
55576;BME280;41437;45.478;9.116;2023-04-03T13:39:01;99198.88;;;20.86;nan
55576;BME280;41437;45.478;9.116;2023-04-03T13:42:15;99206.16;;;21.12;nan
55576;BME280;41437;45.478;9.116;2023-04-03T13:45:20;99192.06;;;21.20;nan
55576;BME280;41437;45.478;9.116;2023-04-03T13:48:24;99192.69;;;20.93;nan
55576;BME280;41437;45.478;9.116;2023-04-03T13:51:27;99188.16;;;21.00;nan
55576;BME280;41437;45.478;9.116;2023-04-03T13:57:35;99189.94;;;20.72;nan
55576;BME280;41437;45.478;9.116;2023-04-03T14:00:47;99191.44;;;20.69;nan
55576;BME280;41437;45.478;9.116;2023-04-03T14:03:54;99188.47;;;20.87;nan
55576;BME280;41437;45.478;9.116;2023-04-03T14:06:56;99192.59;;;21.01;nan
55576;BME280;41437;45.478;9.116;2023-04-03T14:10:00;99183.94;;;20.94;nan
55576;BME280;41437;45.478;9.116;2023-04-03T14:16:04;99178.25;;;20.70;nan
55576;BME280;41437;45.478;9.116;2023-04-03T14:19:05;99181.38;;;20.56;nan
55576;BME280;41437;45.478;9.116;2023-04-03T14:22:15;99170.13;;;20.77;nan
55576;BME280;41437;45.478;9.116;2023-04-03T14:25:20;99165.69;;;20.76;nan
55576;BME280;41437;45.478;9.116;2023-04-03T14:28:24;99159.13;;;20.60;nan
55576;BME280;41437;45.478;9.116;2023-04-03T14:31:26;99155.22;;;20.31;nan
55576;BME280;41437;45.478;9.116;2023-04-03T14:34:28;99147.38;;;20.24;nan
55576;BME280;41437;45.478;9.116;2023-04-03T14:37:30;99142.31;;;19.97;nan
55576;BME280;41437;45.478;9.116;2023-04-03T14:40:33;99149.97;;;20.08;nan
55576;BME280;41437;45.478;9.116;2023-04-03T14:43:37;99149.97;;;19.88;nan
55576;BME280;41437;45.478;9.116;2023-04-03T14:46:42;99148.56;;;19.43;nan
55576;BME280;41437;45.478;9.116;2023-04-03T14:49:52;99116.66;;;18.68;nan
55576;BME280;41437;45.478;9.116;2023-04-03T14:52:56;99133.59;;;18.11;nan
55576;BME280;41437;45.478;9.116;2023-04-03T14:56:11;99132.13;;;17.78;nan
55576;BME280;41437;45.478;9.116;2023-04-03T14:59:14;99135.66;;;17.62;nan
55576;BME280;41437;45.478;9.116;2023-04-03T15:02:27;99134.06;;;17.21;nan
55576;BME280;41437;45.478;9.116;2023-04-03T15:05:29;99140.50;;;17.30;nan
55576;BME280;41437;45.478;9.116;2023-04-03T15:08:33;99139.72;;;17.38;nan
55576;BME280;41437;45.478;9.116;2023-04-03T15:11:45;99142.91;;;17.23;nan
55576;BME280;41437;45.478;9.116;2023-04-03T15:14:47;99154.06;;;17.23;nan
55576;BME280;41437;45.478;9.116;2023-04-03T15:17:55;99151.19;;;17.05;nan
55576;BME280;41437;45.478;9.116;2023-04-03T15:20:58;99154.94;;;17.01;nan
55576;BME280;41437;45.478;9.116;2023-04-03T15:24:00;99151.16;;;16.97;nan
55576;BME280;41437;45.478;9.116;2023-04-03T15:27:05;99149.63;;;16.82;nan
55576;BME280;41437;45.478;9.116;2023-04-03T15:30:11;99149.50;;;16.65;nan
55576;BME280;41437;45.478;9.116;2023-04-03T15:33:14;99149.25;;;16.52;nan
55576;BME280;41437;45.478;9.116;2023-04-03T15:36:16;99148.03;;;16.45;nan
55576;BME280;41437;45.478;9.116;2023-04-03T15:39:18;99159.91;;;16.37;nan
55576;BME280;41437;45.478;9.116;2023-04-03T15:42:25;99153.84;;;16.12;nan
55576;BME280;41437;45.478;9.116;2023-04-03T15:45:29;99149.53;;;16.06;nan
55576;BME280;41437;45.478;9.116;2023-04-03T15:48:31;99163.41;;;15.83;nan
55576;BME280;41437;45.478;9.116;2023-04-03T15:51:35;99170.81;;;15.74;nan
55576;BME280;41437;45.478;9.116;2023-04-03T15:54:37;99157.84;;;15.83;nan
55576;BME280;41437;45.478;9.116;2023-04-03T15:57:41;99157.25;;;16.09;nan
55576;BME280;41437;45.478;9.116;2023-04-03T16:00:44;99175.66;;;16.64;nan
55576;BME280;41437;45.478;9.116;2023-04-03T16:03:48;99172.41;;;16.93;nan
55576;BME280;41437;45.478;9.116;2023-04-03T16:06:51;99169.88;;;16.74;nan
55576;BME280;41437;45.478;9.116;2023-04-03T16:09:53;99171.09;;;16.23;nan
55576;BME280;41437;45.478;9.116;2023-04-03T16:12:57;99184.81;;;15.83;nan
55576;BME280;41437;45.478;9.116;2023-04-03T16:16:01;99182.53;;;15.57;nan
55576;BME280;41437;45.478;9.116;2023-04-03T16:19:03;99196.53;;;15.25;nan
55576;BME280;41437;45.478;9.116;2023-04-03T16:22:14;99190.78;;;15.07;nan
55576;BME280;41437;45.478;9.116;2023-04-03T16:25:18;99189.13;;;15.06;nan
55576;BME280;41437;45.478;9.116;2023-04-03T16:28:23;99192.72;;;14.93;nan
55576;BME280;41437;45.478;9.116;2023-04-03T16:31:25;99200.84;;;14.71;nan
55576;BME280;41437;45.478;9.116;2023-04-03T16:34:27;99185.81;;;14.58;nan
55576;BME280;41437;45.478;9.116;2023-04-03T16:37:32;99193.72;;;14.51;nan
55576;BME280;41437;45.478;9.116;2023-04-03T16:40:34;99206.66;;;14.55;nan
55576;BME280;41437;45.478;9.116;2023-04-03T16:43:37;99201.25;;;14.45;nan
55576;BME280;41437;45.478;9.116;2023-04-03T16:46:40;99203.06;;;14.36;nan
55576;BME280;41437;45.478;9.116;2023-04-03T16:49:44;99213.50;;;14.25;nan
55576;BME280;41437;45.478;9.116;2023-04-03T16:59:06;99217.97;;;14.21;nan
55576;BME280;41437;45.478;9.116;2023-04-03T17:02:11;99223.28;;;14.18;nan
55576;BME280;41437;45.478;9.116;2023-04-03T17:05:13;99224.41;;;14.36;nan
